sensor_id;sensor_type;location;lat;lon;timestamp;temperature;humidity
64634;DHT22;51043;52.406;9.690;2022-12-18T00:01:20;-5.40;99.90
64634;DHT22;51043;52.406;9.690;2022-12-18T00:03:47;-5.40;99.90
64634;DHT22;51043;52.406;9.690;2022-12-18T00:06:15;-5.40;99.90
64634;DHT22;51043;52.406;9.690;2022-12-18T00:08:43;-5.40;99.90
64634;DHT22;51043;52.406;9.690;2022-12-18T00:11:14;-5.50;99.90
64634;DHT22;51043;52.406;9.690;2022-12-18T00:13:41;-5.40;99.90
64634;DHT22;51043;52.406;9.690;2022-12-18T00:16:11;-5.40;99.90
64634;DHT22;51043;52.406;9.690;2022-12-18T00:18:39;-5.40;99.90
64634;DHT22;51043;52.406;9.690;2022-12-18T00:21:08;-5.40;99.90
64634;DHT22;51043;52.406;9.690;2022-12-18T00:23:36;-5.40;99.90
64634;DHT22;51043;52.406;9.690;2022-12-18T00:26:12;-5.40;99.90
64634;DHT22;51043;52.406;9.690;2022-12-18T00:28:39;-5.40;99.90
64634;DHT22;51043;52.406;9.690;2022-12-18T00:31:13;-5.40;99.90
64634;DHT22;51043;52.406;9.690;2022-12-18T00:33:40;-5.30;99.90
64634;DHT22;51043;52.406;9.690;2022-12-18T00:36:13;-5.30;99.90
64634;DHT22;51043;52.406;9.690;2022-12-18T00:38:41;-5.30;99.90
64634;DHT22;51043;52.406;9.690;2022-12-18T00:41:09;-5.30;99.90
64634;DHT22;51043;52.406;9.690;2022-12-18T00:43:38;-5.30;99.90
64634;DHT22;51043;52.406;9.690;2022-12-18T00:46:06;-5.30;99.90
64634;DHT22;51043;52.406;9.690;2022-12-18T00:48:33;-5.30;99.90
64634;DHT22;51043;52.406;9.690;2022-12-18T00:50:59;-5.30;99.90
64634;DHT22;51043;52.406;9.690;2022-12-18T00:53:26;-5.30;99.90
64634;DHT22;51043;52.406;9.690;2022-12-18T00:55:54;-5.40;99.90
64634;DHT22;51043;52.406;9.690;2022-12-18T00:58:21;-5.40;99.90
64634;DHT22;51043;52.406;9.690;2022-12-18T01:00:48;-5.50;99.90
64634;DHT22;51043;52.406;9.690;2022-12-18T01:03:15;-5.60;99.90
64634;DHT22;51043;52.406;9.690;2022-12-18T01:05:43;-5.70;99.90
64634;DHT22;51043;52.406;9.690;2022-12-18T01:08:10;-5.90;99.90
64634;DHT22;51043;52.406;9.690;2022-12-18T01:10:40;-6.00;99.90
64634;DHT22;51043;52.406;9.690;2022-12-18T01:13:08;-6.10;99.90
64634;DHT22;51043;52.406;9.690;2022-12-18T01:15:35;-6.20;99.90
64634;DHT22;51043;52.406;9.690;2022-12-18T01:18:02;-6.30;99.90
64634;DHT22;51043;52.406;9.690;2022-12-18T01:20:31;-6.20;99.90
64634;DHT22;51043;52.406;9.690;2022-12-18T01:22:58;-6.20;99.90
64634;DHT22;51043;52.406;9.690;2022-12-18T01:25:26;-6.10;99.90
64634;DHT22;51043;52.406;9.690;2022-12-18T01:27:53;-6.10;99.90
64634;DHT22;51043;52.406;9.690;2022-12-18T01:30:19;-6.10;99.90
64634;DHT22;51043;52.406;9.690;2022-12-18T01:32:46;-6.10;99.90
64634;DHT22;51043;52.406;9.690;2022-12-18T01:35:13;-6.10;99.90
64634;DHT22;51043;52.406;9.690;2022-12-18T01:37:40;-6.20;99.90
64634;DHT22;51043;52.406;9.690;2022-12-18T01:40:07;-6.10;99.90
64634;DHT22;51043;52.406;9.690;2022-12-18T01:42:34;-6.10;99.90
64634;DHT22;51043;52.406;9.690;2022-12-18T01:45:28;-5.90;99.90
64634;DHT22;51043;52.406;9.690;2022-12-18T01:48:02;-5.90;99.90
64634;DHT22;51043;52.406;9.690;2022-12-18T01:50:38;-5.80;99.90
64634;DHT22;51043;52.406;9.690;2022-12-18T01:53:15;-5.70;99.90
64634;DHT22;51043;52.406;9.690;2022-12-18T01:55:46;-5.80;99.90
64634;DHT22;51043;52.406;9.690;2022-12-18T01:58:15;-5.80;99.90
64634;DHT22;51043;52.406;9.690;2022-12-18T02:00:42;-6.00;99.90
64634;DHT22;51043;52.406;9.690;2022-12-18T02:03:09;-5.70;99.90
64634;DHT22;51043;52.406;9.690;2022-12-18T02:05:47;-5.70;99.90
64634;DHT22;51043;52.406;9.690;2022-12-18T02:11:30;-5.70;99.90
64634;DHT22;51043;52.406;9.690;2022-12-18T02:17:16;-5.80;99.90
64634;DHT22;51043;52.406;9.690;2022-12-18T02:20:25;-5.80;99.90
64634;DHT22;51043;52.406;9.690;2022-12-18T02:26:12;-5.70;99.90
64634;DHT22;51043;52.406;9.690;2022-12-18T02:29:08;-5.70;99.90
64634;DHT22;51043;52.406;9.690;2022-12-18T02:31:39;-5.60;99.90
64634;DHT22;51043;52.406;9.690;2022-12-18T02:34:08;-5.60;99.90
64634;DHT22;51043;52.406;9.690;2022-12-18T02:36:39;-5.60;99.90
64634;DHT22;51043;52.406;9.690;2022-12-18T02:39:09;-5.70;99.90
64634;DHT22;51043;52.406;9.690;2022-12-18T02:41:43;-5.70;99.90
64634;DHT22;51043;52.406;9.690;2022-12-18T02:44:12;-5.60;99.90
64634;DHT22;51043;52.406;9.690;2022-12-18T02:46:46;-5.70;99.90
64634;DHT22;51043;52.406;9.690;2022-12-18T02:55:22;-5.70;99.90
64634;DHT22;51043;52.406;9.690;2022-12-18T03:00:46;-5.70;99.90
64634;DHT22;51043;52.406;9.690;2022-12-18T03:03:42;-5.70;99.90
64634;DHT22;51043;52.406;9.690;2022-12-18T03:06:21;-5.80;99.90
64634;DHT22;51043;52.406;9.690;2022-12-18T03:08:52;-5.80;99.90
64634;DHT22;51043;52.406;9.690;2022-12-18T03:11:22;-5.90;99.90
64634;DHT22;51043;52.406;9.690;2022-12-18T03:14:10;-5.90;99.90
64634;DHT22;51043;52.406;9.690;2022-12-18T03:16:40;-6.00;99.90
64634;DHT22;51043;52.406;9.690;2022-12-18T03:19:11;-5.90;99.90
64634;DHT22;51043;52.406;9.690;2022-12-18T03:21:47;-5.90;99.90
64634;DHT22;51043;52.406;9.690;2022-12-18T03:24:17;-6.00;99.90
64634;DHT22;51043;52.406;9.690;2022-12-18T03:26:47;-6.00;99.90
64634;DHT22;51043;52.406;9.690;2022-12-18T03:29:56;-5.90;99.90
64634;DHT22;51043;52.406;9.690;2022-12-18T03:32:19;-5.90;99.90
64634;DHT22;51043;52.406;9.690;2022-12-18T03:34:51;-5.90;99.90
64634;DHT22;51043;52.406;9.690;2022-12-18T03:37:22;-5.90;99.90
64634;DHT22;51043;52.406;9.690;2022-12-18T03:39:51;-5.70;99.90
64634;DHT22;51043;52.406;9.690;2022-12-18T03:42:25;-5.70;99.90
64634;DHT22;51043;52.406;9.690;2022-12-18T03:45:09;-5.70;99.90
64634;DHT22;51043;52.406;9.690;2022-12-18T03:48:00;-5.70;99.90
64634;DHT22;51043;52.406;9.690;2022-12-18T03:50:45;-5.70;99.90
64634;DHT22;51043;52.406;9.690;2022-12-18T03:56:00;-5.80;99.90
64634;DHT22;51043;52.406;9.690;2022-12-18T03:58:34;-5.80;99.90
64634;DHT22;51043;52.406;9.690;2022-12-18T04:01:15;-5.80;99.90
64634;DHT22;51043;52.406;9.690;2022-12-18T04:03:44;-5.80;99.90
64634;DHT22;51043;52.406;9.690;2022-12-18T04:06:14;-5.80;99.90
64634;DHT22;51043;52.406;9.690;2022-12-18T04:08:42;-5.70;99.90
64634;DHT22;51043;52.406;9.690;2022-12-18T04:11:13;-5.80;99.90
64634;DHT22;51043;52.406;9.690;2022-12-18T04:13:42;-5.80;99.90
64634;DHT22;51043;52.406;9.690;2022-12-18T04:16:17;-5.90;99.90
64634;DHT22;51043;52.406;9.690;2022-12-18T04:18:48;-5.80;99.90
64634;DHT22;51043;52.406;9.690;2022-12-18T04:21:17;-5.90;99.90
64634;DHT22;51043;52.406;9.690;2022-12-18T04:23:45;-5.90;99.90
64634;DHT22;51043;52.406;9.690;2022-12-18T04:26:12;-5.90;99.90
64634;DHT22;51043;52.406;9.690;2022-12-18T04:28:51;-5.90;99.90
64634;DHT22;51043;52.406;9.690;2022-12-18T04:31:18;-5.90;99.90
64634;DHT22;51043;52.406;9.690;2022-12-18T04:33:46;-5.90;99.90
64634;DHT22;51043;52.406;9.690;2022-12-18T04:36:14;-6.10;99.90
64634;DHT22;51043;52.406;9.690;2022-12-18T04:38:42;-6.20;99.90
64634;DHT22;51043;52.406;9.690;2022-12-18T04:41:12;-6.30;99.90
64634;DHT22;51043;52.406;9.690;2022-12-18T04:43:40;-6.30;99.90
64634;DHT22;51043;52.406;9.690;2022-12-18T04:46:08;-6.30;99.90
64634;DHT22;51043;52.406;9.690;2022-12-18T04:48:37;-6.30;99.90
64634;DHT22;51043;52.406;9.690;2022-12-18T04:51:05;-6.40;99.90
64634;DHT22;51043;52.406;9.690;2022-12-18T04:53:32;-6.40;99.90
64634;DHT22;51043;52.406;9.690;2022-12-18T04:56:25;-6.40;99.90
64634;DHT22;51043;52.406;9.690;2022-12-18T04:58:52;-6.40;99.90
64634;DHT22;51043;52.406;9.690;2022-12-18T05:01:19;-6.40;99.90
64634;DHT22;51043;52.406;9.690;2022-12-18T05:03:46;-6.50;99.90
64634;DHT22;51043;52.406;9.690;2022-12-18T05:06:13;-6.50;99.90
64634;DHT22;51043;52.406;9.690;2022-12-18T05:08:40;-6.60;99.90
64634;DHT22;51043;52.406;9.690;2022-12-18T05:11:09;-6.70;99.90
64634;DHT22;51043;52.406;9.690;2022-12-18T05:13:36;-6.70;99.90
64634;DHT22;51043;52.406;9.690;2022-12-18T05:16:04;-6.70;99.90
64634;DHT22;51043;52.406;9.690;2022-12-18T05:18:31;-6.70;99.90
64634;DHT22;51043;52.406;9.690;2022-12-18T05:20:58;-6.70;99.90
64634;DHT22;51043;52.406;9.690;2022-12-18T05:23:26;-6.80;99.90
64634;DHT22;51043;52.406;9.690;2022-12-18T05:25:55;-6.80;99.90
64634;DHT22;51043;52.406;9.690;2022-12-18T05:28:24;-6.90;99.90
64634;DHT22;51043;52.406;9.690;2022-12-18T05:30:53;-6.90;99.90
64634;DHT22;51043;52.406;9.690;2022-12-18T05:33:22;-7.00;99.90
64634;DHT22;51043;52.406;9.690;2022-12-18T05:35:54;-6.90;99.90
64634;DHT22;51043;52.406;9.690;2022-12-18T05:38:22;-6.80;99.90
64634;DHT22;51043;52.406;9.690;2022-12-18T05:40:50;-6.80;99.90
64634;DHT22;51043;52.406;9.690;2022-12-18T05:43:18;-6.80;99.90
64634;DHT22;51043;52.406;9.690;2022-12-18T05:45:47;-6.70;99.90
64634;DHT22;51043;52.406;9.690;2022-12-18T05:48:14;-6.70;99.90
64634;DHT22;51043;52.406;9.690;2022-12-18T05:50:43;-6.70;99.90
64634;DHT22;51043;52.406;9.690;2022-12-18T05:53:13;-6.50;99.90
64634;DHT22;51043;52.406;9.690;2022-12-18T05:55:41;-6.40;99.90
64634;DHT22;51043;52.406;9.690;2022-12-18T05:58:10;-6.30;99.90
64634;DHT22;51043;52.406;9.690;2022-12-18T06:00:45;-6.30;99.90
64634;DHT22;51043;52.406;9.690;2022-12-18T06:03:12;-6.40;99.90
64634;DHT22;51043;52.406;9.690;2022-12-18T06:05:42;-6.30;99.90
64634;DHT22;51043;52.406;9.690;2022-12-18T06:08:10;-6.30;99.90
64634;DHT22;51043;52.406;9.690;2022-12-18T06:10:37;-6.40;99.90
64634;DHT22;51043;52.406;9.690;2022-12-18T06:13:04;-6.40;99.90
64634;DHT22;51043;52.406;9.690;2022-12-18T06:15:31;-6.50;99.90
64634;DHT22;51043;52.406;9.690;2022-12-18T06:18:00;-6.50;99.90
64634;DHT22;51043;52.406;9.690;2022-12-18T06:20:27;-6.60;99.90
64634;DHT22;51043;52.406;9.690;2022-12-18T06:22:59;-6.60;99.90
64634;DHT22;51043;52.406;9.690;2022-12-18T06:25:26;-6.40;99.90
64634;DHT22;51043;52.406;9.690;2022-12-18T06:27:52;-6.50;99.90
64634;DHT22;51043;52.406;9.690;2022-12-18T06:30:19;-6.50;99.90
64634;DHT22;51043;52.406;9.690;2022-12-18T06:32:48;-6.60;99.90
64634;DHT22;51043;52.406;9.690;2022-12-18T06:35:17;-6.70;99.90
64634;DHT22;51043;52.406;9.690;2022-12-18T06:37:44;-6.70;99.90
64634;DHT22;51043;52.406;9.690;2022-12-18T06:40:11;-6.80;99.90
64634;DHT22;51043;52.406;9.690;2022-12-18T06:42:38;-6.80;99.90
64634;DHT22;51043;52.406;9.690;2022-12-18T06:45:05;-6.90;99.90
64634;DHT22;51043;52.406;9.690;2022-12-18T06:47:32;-7.00;99.90
64634;DHT22;51043;52.406;9.690;2022-12-18T06:49:59;-7.00;99.90
64634;DHT22;51043;52.406;9.690;2022-12-18T06:52:26;-7.10;99.90
64634;DHT22;51043;52.406;9.690;2022-12-18T06:54:53;-7.10;99.90
64634;DHT22;51043;52.406;9.690;2022-12-18T06:57:20;-7.00;99.90
64634;DHT22;51043;52.406;9.690;2022-12-18T06:59:47;-6.90;99.90
64634;DHT22;51043;52.406;9.690;2022-12-18T07:02:14;-6.90;99.90
64634;DHT22;51043;52.406;9.690;2022-12-18T07:04:41;-6.90;99.90
64634;DHT22;51043;52.406;9.690;2022-12-18T07:07:08;-6.80;99.90
64634;DHT22;51043;52.406;9.690;2022-12-18T07:09:35;-6.80;99.90
64634;DHT22;51043;52.406;9.690;2022-12-18T07:12:04;-6.90;99.90
64634;DHT22;51043;52.406;9.690;2022-12-18T07:14:33;-6.90;99.90
64634;DHT22;51043;52.406;9.690;2022-12-18T07:17:00;-6.90;99.90
64634;DHT22;51043;52.406;9.690;2022-12-18T07:19:27;-6.90;99.90
64634;DHT22;51043;52.406;9.690;2022-12-18T07:21:54;-7.00;99.90
64634;DHT22;51043;52.406;9.690;2022-12-18T07:24:21;-7.00;99.90
64634;DHT22;51043;52.406;9.690;2022-12-18T07:26:48;-7.10;99.90
64634;DHT22;51043;52.406;9.690;2022-12-18T07:29:15;-7.10;99.90
64634;DHT22;51043;52.406;9.690;2022-12-18T07:31:42;-7.10;99.90
64634;DHT22;51043;52.406;9.690;2022-12-18T07:34:13;-7.10;99.90
64634;DHT22;51043;52.406;9.690;2022-12-18T07:36:41;-7.10;99.90
64634;DHT22;51043;52.406;9.690;2022-12-18T07:39:10;-7.10;99.90
64634;DHT22;51043;52.406;9.690;2022-12-18T07:41:37;-7.00;99.90
64634;DHT22;51043;52.406;9.690;2022-12-18T07:44:12;-7.10;99.90
64634;DHT22;51043;52.406;9.690;2022-12-18T07:46:39;-7.10;99.90
64634;DHT22;51043;52.406;9.690;2022-12-18T07:49:07;-7.00;99.90
64634;DHT22;51043;52.406;9.690;2022-12-18T07:51:33;-6.90;99.90
64634;DHT22;51043;52.406;9.690;2022-12-18T07:54:00;-6.90;99.90
64634;DHT22;51043;52.406;9.690;2022-12-18T07:56:27;-6.90;99.90
64634;DHT22;51043;52.406;9.690;2022-12-18T07:58:56;-6.90;99.90
64634;DHT22;51043;52.406;9.690;2022-12-18T08:01:23;-6.80;99.90
64634;DHT22;51043;52.406;9.690;2022-12-18T08:03:50;-6.60;99.90
64634;DHT22;51043;52.406;9.690;2022-12-18T08:06:18;-6.80;99.90
64634;DHT22;51043;52.406;9.690;2022-12-18T08:08:45;-6.70;99.90
64634;DHT22;51043;52.406;9.690;2022-12-18T08:11:11;-6.90;99.90
64634;DHT22;51043;52.406;9.690;2022-12-18T08:13:38;-6.50;99.90
64634;DHT22;51043;52.406;9.690;2022-12-18T08:16:07;-6.50;99.90
64634;DHT22;51043;52.406;9.690;2022-12-18T08:18:37;-6.40;99.90
64634;DHT22;51043;52.406;9.690;2022-12-18T08:21:16;-6.10;99.90
64634;DHT22;51043;52.406;9.690;2022-12-18T08:23:43;-6.00;99.90
64634;DHT22;51043;52.406;9.690;2022-12-18T08:26:11;-6.10;99.90
64634;DHT22;51043;52.406;9.690;2022-12-18T08:28:39;-6.00;99.90
64634;DHT22;51043;52.406;9.690;2022-12-18T08:31:06;-6.00;99.90
64634;DHT22;51043;52.406;9.690;2022-12-18T08:33:34;-5.90;99.90
64634;DHT22;51043;52.406;9.690;2022-12-18T08:36:03;-5.80;99.90
64634;DHT22;51043;52.406;9.690;2022-12-18T08:38:31;-5.80;99.90
64634;DHT22;51043;52.406;9.690;2022-12-18T08:41:03;-5.70;99.90
64634;DHT22;51043;52.406;9.690;2022-12-18T08:43:29;-5.70;99.90
64634;DHT22;51043;52.406;9.690;2022-12-18T08:46:16;-5.50;99.90
64634;DHT22;51043;52.406;9.690;2022-12-18T08:48:43;-5.40;99.90
64634;DHT22;51043;52.406;9.690;2022-12-18T08:51:10;-5.30;99.90
64634;DHT22;51043;52.406;9.690;2022-12-18T08:53:37;-5.20;99.90
64634;DHT22;51043;52.406;9.690;2022-12-18T08:56:05;-5.00;99.90
64634;DHT22;51043;52.406;9.690;2022-12-18T08:58:32;-4.70;99.90
64634;DHT22;51043;52.406;9.690;2022-12-18T09:01:00;-4.50;99.90
64634;DHT22;51043;52.406;9.690;2022-12-18T09:03:28;-4.30;99.90
64634;DHT22;51043;52.406;9.690;2022-12-18T09:05:55;-4.20;99.90
64634;DHT22;51043;52.406;9.690;2022-12-18T09:08:22;-4.10;99.90
64634;DHT22;51043;52.406;9.690;2022-12-18T09:10:50;-4.10;99.90
64634;DHT22;51043;52.406;9.690;2022-12-18T09:13:17;-4.10;99.90
64634;DHT22;51043;52.406;9.690;2022-12-18T09:15:46;-4.00;99.90
64634;DHT22;51043;52.406;9.690;2022-12-18T09:18:15;-4.00;99.90
64634;DHT22;51043;52.406;9.690;2022-12-18T09:20:43;-3.80;99.90
64634;DHT22;51043;52.406;9.690;2022-12-18T09:23:10;-3.80;99.90
64634;DHT22;51043;52.406;9.690;2022-12-18T09:25:37;-3.70;99.90
64634;DHT22;51043;52.406;9.690;2022-12-18T09:28:09;-3.60;99.90
64634;DHT22;51043;52.406;9.690;2022-12-18T09:30:41;-3.40;99.90
64634;DHT22;51043;52.406;9.690;2022-12-18T09:33:08;-3.50;99.90
64634;DHT22;51043;52.406;9.690;2022-12-18T09:35:39;-3.40;99.90
64634;DHT22;51043;52.406;9.690;2022-12-18T09:38:07;-3.30;99.90
64634;DHT22;51043;52.406;9.690;2022-12-18T09:40:40;-3.20;99.90
64634;DHT22;51043;52.406;9.690;2022-12-18T09:43:17;-2.90;99.90
64634;DHT22;51043;52.406;9.690;2022-12-18T09:45:49;-2.60;99.90
64634;DHT22;51043;52.406;9.690;2022-12-18T09:48:30;-2.30;99.90
64634;DHT22;51043;52.406;9.690;2022-12-18T09:51:01;-1.80;99.90
64634;DHT22;51043;52.406;9.690;2022-12-18T09:53:32;-1.30;99.90
64634;DHT22;51043;52.406;9.690;2022-12-18T09:56:00;-0.90;99.90
64634;DHT22;51043;52.406;9.690;2022-12-18T09:59:01;-0.80;99.90
64634;DHT22;51043;52.406;9.690;2022-12-18T10:01:29;-0.50;99.90
64634;DHT22;51043;52.406;9.690;2022-12-18T10:04:05;-0.20;99.90
64634;DHT22;51043;52.406;9.690;2022-12-18T10:06:54;0.00;99.90
64634;DHT22;51043;52.406;9.690;2022-12-18T10:09:37;0.10;99.90
64634;DHT22;51043;52.406;9.690;2022-12-18T10:12:24;0.00;99.90
64634;DHT22;51043;52.406;9.690;2022-12-18T10:17:41;0.00;99.90
64634;DHT22;51043;52.406;9.690;2022-12-18T10:20:20;0.00;99.90
64634;DHT22;51043;52.406;9.690;2022-12-18T10:23:14;-0.10;99.90
64634;DHT22;51043;52.406;9.690;2022-12-18T10:28:32;-0.10;99.90
64634;DHT22;51043;52.406;9.690;2022-12-18T10:30:59;-0.10;99.90
64634;DHT22;51043;52.406;9.690;2022-12-18T10:33:29;-0.10;99.90
64634;DHT22;51043;52.406;9.690;2022-12-18T10:35:56;-0.10;99.90
64634;DHT22;51043;52.406;9.690;2022-12-18T10:38:31;0.00;99.90
64634;DHT22;51043;52.406;9.690;2022-12-18T10:41:04;0.10;99.90
64634;DHT22;51043;52.406;9.690;2022-12-18T10:43:34;0.10;99.90
64634;DHT22;51043;52.406;9.690;2022-12-18T10:48:55;0.20;99.90
64634;DHT22;51043;52.406;9.690;2022-12-18T10:51:36;0.30;99.90
64634;DHT22;51043;52.406;9.690;2022-12-18T10:54:12;0.50;99.90
64634;DHT22;51043;52.406;9.690;2022-12-18T10:56:41;0.90;99.90
64634;DHT22;51043;52.406;9.690;2022-12-18T10:59:11;1.40;99.90
64634;DHT22;51043;52.406;9.690;2022-12-18T11:01:56;1.60;99.90
64634;DHT22;51043;52.406;9.690;2022-12-18T11:04:29;1.40;99.90
64634;DHT22;51043;52.406;9.690;2022-12-18T11:07:02;1.30;99.90
64634;DHT22;51043;52.406;9.690;2022-12-18T11:09:34;1.20;99.90
64634;DHT22;51043;52.406;9.690;2022-12-18T11:12:04;1.30;99.90
64634;DHT22;51043;52.406;9.690;2022-12-18T11:14:48;1.30;99.90
64634;DHT22;51043;52.406;9.690;2022-12-18T11:17:30;1.50;99.90
64634;DHT22;51043;52.406;9.690;2022-12-18T11:20:00;1.50;99.90
64634;DHT22;51043;52.406;9.690;2022-12-18T11:22:32;1.40;99.90
64634;DHT22;51043;52.406;9.690;2022-12-18T11:28:01;1.60;99.90
64634;DHT22;51043;52.406;9.690;2022-12-18T11:30:34;1.60;99.90
64634;DHT22;51043;52.406;9.690;2022-12-18T11:33:11;1.60;99.90
64634;DHT22;51043;52.406;9.690;2022-12-18T11:35:57;1.90;99.90
64634;DHT22;51043;52.406;9.690;2022-12-18T11:38:38;2.10;99.90
64634;DHT22;51043;52.406;9.690;2022-12-18T11:41:29;2.40;99.90
64634;DHT22;51043;52.406;9.690;2022-12-18T11:44:22;2.60;99.90
64634;DHT22;51043;52.406;9.690;2022-12-18T11:47:00;2.90;99.90
64634;DHT22;51043;52.406;9.690;2022-12-18T11:49:35;3.40;99.90
64634;DHT22;51043;52.406;9.690;2022-12-18T11:52:11;3.80;99.90
64634;DHT22;51043;52.406;9.690;2022-12-18T11:54:40;4.00;99.90
64634;DHT22;51043;52.406;9.690;2022-12-18T11:57:27;4.10;99.90
64634;DHT22;51043;52.406;9.690;2022-12-18T12:00:19;4.20;99.90
64634;DHT22;51043;52.406;9.690;2022-12-18T12:11:31;3.20;99.90
64634;DHT22;51043;52.406;9.690;2022-12-18T12:14:43;3.10;99.90
64634;DHT22;51043;52.406;9.690;2022-12-18T12:17:55;2.80;99.90
64634;DHT22;51043;52.406;9.690;2022-12-18T12:20:15;2.30;99.90
64634;DHT22;51043;52.406;9.690;2022-12-18T12:22:58;1.90;99.90
64634;DHT22;51043;52.406;9.690;2022-12-18T12:30:42;1.00;99.90
64634;DHT22;51043;52.406;9.690;2022-12-18T12:36:02;0.80;99.90
64634;DHT22;51043;52.406;9.690;2022-12-18T12:38:48;0.70;99.90
64634;DHT22;51043;52.406;9.690;2022-12-18T12:41:20;0.70;99.90
64634;DHT22;51043;52.406;9.690;2022-12-18T12:44:15;0.70;99.90
64634;DHT22;51043;52.406;9.690;2022-12-18T12:46:43;0.70;99.90
64634;DHT22;51043;52.406;9.690;2022-12-18T12:49:16;0.70;99.90
64634;DHT22;51043;52.406;9.690;2022-12-18T12:51:47;0.70;99.90
64634;DHT22;51043;52.406;9.690;2022-12-18T12:54:22;0.60;99.90
64634;DHT22;51043;52.406;9.690;2022-12-18T12:59:59;0.60;99.90
64634;DHT22;51043;52.406;9.690;2022-12-18T13:02:56;0.50;99.90
64634;DHT22;51043;52.406;9.690;2022-12-18T13:08:29;0.40;99.90
64634;DHT22;51043;52.406;9.690;2022-12-18T13:11:00;0.40;99.90
64634;DHT22;51043;52.406;9.690;2022-12-18T13:13:51;0.30;99.90
64634;DHT22;51043;52.406;9.690;2022-12-18T13:16:21;0.30;99.90
64634;DHT22;51043;52.406;9.690;2022-12-18T13:18:50;0.20;99.90
64634;DHT22;51043;52.406;9.690;2022-12-18T13:21:30;0.20;99.90
64634;DHT22;51043;52.406;9.690;2022-12-18T13:24:27;0.10;99.90
64634;DHT22;51043;52.406;9.690;2022-12-18T13:26:57;0.10;99.90
64634;DHT22;51043;52.406;9.690;2022-12-18T13:29:44;-0.10;99.90
64634;DHT22;51043;52.406;9.690;2022-12-18T13:32:23;0.00;99.90
64634;DHT22;51043;52.406;9.690;2022-12-18T13:37:52;-0.10;99.90
64634;DHT22;51043;52.406;9.690;2022-12-18T13:46:27;-0.20;99.90
64634;DHT22;51043;52.406;9.690;2022-12-18T13:51:55;-0.30;99.90
64634;DHT22;51043;52.406;9.690;2022-12-18T13:54:39;-0.40;99.90
64634;DHT22;51043;52.406;9.690;2022-12-18T13:57:29;-0.40;99.90
64634;DHT22;51043;52.406;9.690;2022-12-18T13:59:57;-0.60;99.90
64634;DHT22;51043;52.406;9.690;2022-12-18T14:02:27;-0.60;99.90
64634;DHT22;51043;52.406;9.690;2022-12-18T14:04:55;-0.70;99.90
64634;DHT22;51043;52.406;9.690;2022-12-18T14:07:26;-0.80;99.90
64634;DHT22;51043;52.406;9.690;2022-12-18T14:09:57;-0.80;99.90
64634;DHT22;51043;52.406;9.690;2022-12-18T14:12:33;-1.00;99.90
64634;DHT22;51043;52.406;9.690;2022-12-18T14:20:43;-1.20;99.90
64634;DHT22;51043;52.406;9.690;2022-12-18T14:25:55;-1.30;99.90
64634;DHT22;51043;52.406;9.690;2022-12-18T14:28:26;-1.40;99.90
64634;DHT22;51043;52.406;9.690;2022-12-18T14:31:15;-1.40;99.90
64634;DHT22;51043;52.406;9.690;2022-12-18T14:33:43;-1.50;99.90
64634;DHT22;51043;52.406;9.690;2022-12-18T14:36:27;-1.60;99.90
64634;DHT22;51043;52.406;9.690;2022-12-18T14:38:56;-1.70;99.90
64634;DHT22;51043;52.406;9.690;2022-12-18T14:41:25;-1.80;99.90
64634;DHT22;51043;52.406;9.690;2022-12-18T14:43:54;-1.90;99.90
64634;DHT22;51043;52.406;9.690;2022-12-18T14:46:41;-2.00;99.90
64634;DHT22;51043;52.406;9.690;2022-12-18T14:51:58;-2.10;99.90
64634;DHT22;51043;52.406;9.690;2022-12-18T14:54:27;-2.10;99.90
64634;DHT22;51043;52.406;9.690;2022-12-18T14:57:20;-2.20;99.90
64634;DHT22;51043;52.406;9.690;2022-12-18T14:59:48;-2.20;99.90
64634;DHT22;51043;52.406;9.690;2022-12-18T15:02:24;-2.30;99.90
64634;DHT22;51043;52.406;9.690;2022-12-18T15:07:53;-2.50;99.90
64634;DHT22;51043;52.406;9.690;2022-12-18T15:10:34;-2.60;99.90
64634;DHT22;51043;52.406;9.690;2022-12-18T15:20:58;-2.70;99.90
64634;DHT22;51043;52.406;9.690;2022-12-18T15:23:46;-2.80;99.90
64634;DHT22;51043;52.406;9.690;2022-12-18T15:26:16;-2.90;99.90
64634;DHT22;51043;52.406;9.690;2022-12-18T15:28:55;-2.90;99.90
64634;DHT22;51043;52.406;9.690;2022-12-18T15:31:23;-2.90;99.90
64634;DHT22;51043;52.406;9.690;2022-12-18T15:36:23;-2.90;99.90
64634;DHT22;51043;52.406;9.690;2022-12-18T15:38:51;-3.00;99.90
64634;DHT22;51043;52.406;9.690;2022-12-18T15:41:20;-3.00;99.90
64634;DHT22;51043;52.406;9.690;2022-12-18T15:43:51;-3.00;99.90
64634;DHT22;51043;52.406;9.690;2022-12-18T15:46:23;-3.10;99.90
64634;DHT22;51043;52.406;9.690;2022-12-18T15:48:52;-3.10;99.90
64634;DHT22;51043;52.406;9.690;2022-12-18T15:51:54;-3.10;99.90
64634;DHT22;51043;52.406;9.690;2022-12-18T15:54:23;-3.00;99.90
64634;DHT22;51043;52.406;9.690;2022-12-18T15:57:12;-3.00;99.90
64634;DHT22;51043;52.406;9.690;2022-12-18T15:59:53;-3.00;99.90
64634;DHT22;51043;52.406;9.690;2022-12-18T16:02:20;-2.90;99.90
64634;DHT22;51043;52.406;9.690;2022-12-18T16:04:50;-2.90;99.90
64634;DHT22;51043;52.406;9.690;2022-12-18T16:07:18;-2.90;99.90
64634;DHT22;51043;52.406;9.690;2022-12-18T16:09:45;-2.80;99.90
64634;DHT22;51043;52.406;9.690;2022-12-18T16:12:18;-2.80;99.90
64634;DHT22;51043;52.406;9.690;2022-12-18T16:14:46;-2.70;99.90
64634;DHT22;51043;52.406;9.690;2022-12-18T16:17:13;-2.70;99.90
64634;DHT22;51043;52.406;9.690;2022-12-18T16:19:41;-2.60;99.90
64634;DHT22;51043;52.406;9.690;2022-12-18T16:22:20;-2.60;99.90
64634;DHT22;51043;52.406;9.690;2022-12-18T16:24:48;-2.60;99.90
64634;DHT22;51043;52.406;9.690;2022-12-18T16:27:15;-2.50;99.90
64634;DHT22;51043;52.406;9.690;2022-12-18T16:29:42;-2.50;99.90
64634;DHT22;51043;52.406;9.690;2022-12-18T16:32:20;-2.40;99.90
64634;DHT22;51043;52.406;9.690;2022-12-18T16:34:48;-2.40;99.90
64634;DHT22;51043;52.406;9.690;2022-12-18T16:37:15;-2.40;99.90
64634;DHT22;51043;52.406;9.690;2022-12-18T16:39:43;-2.40;99.90
64634;DHT22;51043;52.406;9.690;2022-12-18T16:42:12;-2.50;99.90
64634;DHT22;51043;52.406;9.690;2022-12-18T16:44:41;-2.60;99.90
64634;DHT22;51043;52.406;9.690;2022-12-18T16:47:09;-2.60;99.90
64634;DHT22;51043;52.406;9.690;2022-12-18T16:49:36;-2.60;99.90
64634;DHT22;51043;52.406;9.690;2022-12-18T16:52:04;-2.60;99.90
64634;DHT22;51043;52.406;9.690;2022-12-18T16:54:31;-2.50;99.90
64634;DHT22;51043;52.406;9.690;2022-12-18T16:57:00;-2.50;99.90
64634;DHT22;51043;52.406;9.690;2022-12-18T16:59:27;-2.40;99.90
64634;DHT22;51043;52.406;9.690;2022-12-18T17:01:55;-2.30;99.90
64634;DHT22;51043;52.406;9.690;2022-12-18T17:04:22;-2.30;99.90
64634;DHT22;51043;52.406;9.690;2022-12-18T17:06:50;-2.30;99.90
64634;DHT22;51043;52.406;9.690;2022-12-18T17:09:20;-2.30;99.90
64634;DHT22;51043;52.406;9.690;2022-12-18T17:11:53;-2.30;99.90
64634;DHT22;51043;52.406;9.690;2022-12-18T17:14:22;-2.30;99.90
64634;DHT22;51043;52.406;9.690;2022-12-18T17:16:52;-2.20;99.90
64634;DHT22;51043;52.406;9.690;2022-12-18T17:19:39;-2.20;99.90
64634;DHT22;51043;52.406;9.690;2022-12-18T17:22:06;-2.20;99.90
64634;DHT22;51043;52.406;9.690;2022-12-18T17:24:34;-2.20;99.90
64634;DHT22;51043;52.406;9.690;2022-12-18T17:27:02;-2.20;99.90
64634;DHT22;51043;52.406;9.690;2022-12-18T17:29:29;-2.20;99.90
64634;DHT22;51043;52.406;9.690;2022-12-18T17:31:56;-2.20;99.90
64634;DHT22;51043;52.406;9.690;2022-12-18T17:34:23;-2.20;99.90